Academy, Texas
Current Conditions -  °F | °C
As of 6:55 AM on Friday 24 Oct 2014 (Local Time) from KTPL Reporting Station
Clear Clear  
Wind Chill: 59°   Ceiling: Unl
Heat Index: 59°   Visibility: 10mi
Dew Point: 50°   Wind: 3mph
Humidity: 72%   Direction: 160°SSE
Pressure: 30.13"   Gusts: NA
Location:  30.9809°N, 97.3415°W
Report Text: KTPL 241155Z AUTO 16003KT 10SM CLR 15/10 A3013 RMK AO1 10170 20140 52003
Loading
Personal Weather Stations






























Interactive Weather Map
Tropical Storm Tracking
New forecast layout! Learn more

10-Day Weather Forecast

Advertisements
Track Severe Weather on mobile